sensor_id;sensor_type;location;lat;lon;timestamp;temperature;humidity
54272;DHT22;40184;53.362;5.216;2022-08-11T00:02:06;19.00;99.90
54272;DHT22;40184;53.362;5.216;2022-08-11T00:04:35;19.30;99.90
54272;DHT22;40184;53.362;5.216;2022-08-11T00:07:02;19.30;99.90
54272;DHT22;40184;53.362;5.216;2022-08-11T00:09:35;19.00;99.90
54272;DHT22;40184;53.362;5.216;2022-08-11T00:12:02;19.20;99.90
54272;DHT22;40184;53.362;5.216;2022-08-11T00:14:30;19.10;99.90
54272;DHT22;40184;53.362;5.216;2022-08-11T00:17:03;18.70;99.90
54272;DHT22;40184;53.362;5.216;2022-08-11T00:19:32;19.30;99.90
54272;DHT22;40184;53.362;5.216;2022-08-11T00:21:59;19.30;99.90
54272;DHT22;40184;53.362;5.216;2022-08-11T00:24:34;18.80;99.90
54272;DHT22;40184;53.362;5.216;2022-08-11T00:27:01;18.90;99.90
54272;DHT22;40184;53.362;5.216;2022-08-11T00:29:27;18.90;99.90
54272;DHT22;40184;53.362;5.216;2022-08-11T00:31:56;18.80;99.90
54272;DHT22;40184;53.362;5.216;2022-08-11T00:34:27;19.20;99.90
54272;DHT22;40184;53.362;5.216;2022-08-11T00:37:10;19.00;99.90
54272;DHT22;40184;53.362;5.216;2022-08-11T00:39:47;18.70;99.90
54272;DHT22;40184;53.362;5.216;2022-08-11T00:45:26;18.90;99.90
54272;DHT22;40184;53.362;5.216;2022-08-11T00:48:18;18.60;99.90
54272;DHT22;40184;53.362;5.216;2022-08-11T00:51:35;18.90;99.90
54272;DHT22;40184;53.362;5.216;2022-08-11T01:00:02;18.60;99.90
54272;DHT22;40184;53.362;5.216;2022-08-11T01:41:25;19.10;99.90
54272;DHT22;40184;53.362;5.216;2022-08-11T01:46:21;18.70;99.90
54272;DHT22;40184;53.362;5.216;2022-08-11T01:51:44;18.90;99.90
54272;DHT22;40184;53.362;5.216;2022-08-11T01:54:31;19.00;99.90
54272;DHT22;40184;53.362;5.216;2022-08-11T01:59:51;18.70;99.90
54272;DHT22;40184;53.362;5.216;2022-08-11T02:02:40;18.70;99.90
54272;DHT22;40184;53.362;5.216;2022-08-11T02:10:46;18.90;99.90
54272;DHT22;40184;53.362;5.216;2022-08-11T02:22:22;18.60;99.90
54272;DHT22;40184;53.362;5.216;2022-08-11T02:25:30;18.70;99.90
54272;DHT22;40184;53.362;5.216;2022-08-11T02:28:07;18.20;99.90
54272;DHT22;40184;53.362;5.216;2022-08-11T02:30:40;18.60;99.90
54272;DHT22;40184;53.362;5.216;2022-08-11T02:33:33;18.30;99.90
54272;DHT22;40184;53.362;5.216;2022-08-11T02:36:24;18.70;99.90
54272;DHT22;40184;53.362;5.216;2022-08-11T02:39:12;18.50;99.90
54272;DHT22;40184;53.362;5.216;2022-08-11T02:42:10;18.60;99.90
54272;DHT22;40184;53.362;5.216;2022-08-11T02:50:49;18.50;99.90
54272;DHT22;40184;53.362;5.216;2022-08-11T02:53:25;18.60;99.90
54272;DHT22;40184;53.362;5.216;2022-08-11T02:56:13;18.50;99.90
54272;DHT22;40184;53.362;5.216;2022-08-11T02:59:14;18.60;99.90
54272;DHT22;40184;53.362;5.216;2022-08-11T03:05:15;18.80;99.90
54272;DHT22;40184;53.362;5.216;2022-08-11T03:08:10;18.70;99.90
54272;DHT22;40184;53.362;5.216;2022-08-11T03:20:02;18.70;99.90
54272;DHT22;40184;53.362;5.216;2022-08-11T03:22:39;18.70;99.90
54272;DHT22;40184;53.362;5.216;2022-08-11T03:28:23;18.70;99.90
54272;DHT22;40184;53.362;5.216;2022-08-11T03:30:47;18.60;99.90
54272;DHT22;40184;53.362;5.216;2022-08-11T03:33:27;18.30;99.90
54272;DHT22;40184;53.362;5.216;2022-08-11T03:51:05;18.50;99.90
54272;DHT22;40184;53.362;5.216;2022-08-11T04:08:27;18.20;99.90
54272;DHT22;40184;53.362;5.216;2022-08-11T04:14:11;18.60;99.90
54272;DHT22;40184;53.362;5.216;2022-08-11T04:17:37;18.60;99.90
54272;DHT22;40184;53.362;5.216;2022-08-11T04:23:26;18.60;99.90
54272;DHT22;40184;53.362;5.216;2022-08-11T04:31:24;18.20;99.90
54272;DHT22;40184;53.362;5.216;2022-08-11T05:11:33;18.60;99.90
54272;DHT22;40184;53.362;5.216;2022-08-11T05:14:28;18.50;99.90
54272;DHT22;40184;53.362;5.216;2022-08-11T05:17:16;19.00;99.90
54272;DHT22;40184;53.362;5.216;2022-08-11T05:20:08;18.40;99.90
54272;DHT22;40184;53.362;5.216;2022-08-11T05:23:04;19.10;99.90
54272;DHT22;40184;53.362;5.216;2022-08-11T05:25:53;18.90;99.90
54272;DHT22;40184;53.362;5.216;2022-08-11T05:28:49;18.60;99.90
54272;DHT22;40184;53.362;5.216;2022-08-11T05:31:37;18.90;99.90
54272;DHT22;40184;53.362;5.216;2022-08-11T05:34:41;18.90;99.90
54272;DHT22;40184;53.362;5.216;2022-08-11T05:40:10;19.20;99.90
54272;DHT22;40184;53.362;5.216;2022-08-11T05:43:01;19.50;99.90
54272;DHT22;40184;53.362;5.216;2022-08-11T05:45:56;18.90;99.90
54272;DHT22;40184;53.362;5.216;2022-08-11T05:48:42;19.10;99.90
54272;DHT22;40184;53.362;5.216;2022-08-11T05:51:38;19.00;99.90
54272;DHT22;40184;53.362;5.216;2022-08-11T05:54:25;19.70;99.90
54272;DHT22;40184;53.362;5.216;2022-08-11T05:57:21;19.60;99.90
54272;DHT22;40184;53.362;5.216;2022-08-11T05:59:47;19.40;99.90
54272;DHT22;40184;53.362;5.216;2022-08-11T06:02:14;19.60;99.90
54272;DHT22;40184;53.362;5.216;2022-08-11T06:04:41;19.90;99.90
54272;DHT22;40184;53.362;5.216;2022-08-11T06:07:10;19.70;99.90
54272;DHT22;40184;53.362;5.216;2022-08-11T06:09:46;20.10;99.90
54272;DHT22;40184;53.362;5.216;2022-08-11T06:12:30;20.00;99.90
54272;DHT22;40184;53.362;5.216;2022-08-11T06:15:00;20.20;99.90
54272;DHT22;40184;53.362;5.216;2022-08-11T06:17:31;20.20;99.90
54272;DHT22;40184;53.362;5.216;2022-08-11T06:20:08;20.40;99.90
54272;DHT22;40184;53.362;5.216;2022-08-11T06:22:38;20.40;99.90
54272;DHT22;40184;53.362;5.216;2022-08-11T06:25:08;20.40;99.90
54272;DHT22;40184;53.362;5.216;2022-08-11T06:27:36;20.50;99.90
54272;DHT22;40184;53.362;5.216;2022-08-11T06:30:04;20.20;99.90
54272;DHT22;40184;53.362;5.216;2022-08-11T06:32:41;20.40;99.90
54272;DHT22;40184;53.362;5.216;2022-08-11T06:48:18;20.50;99.90
54272;DHT22;40184;53.362;5.216;2022-08-11T06:50:50;20.90;99.90
54272;DHT22;40184;53.362;5.216;2022-08-11T06:53:45;20.70;99.90
54272;DHT22;40184;53.362;5.216;2022-08-11T06:56:13;21.00;99.90
54272;DHT22;40184;53.362;5.216;2022-08-11T06:58:59;21.20;99.90
54272;DHT22;40184;53.362;5.216;2022-08-11T07:02:13;21.30;99.90
54272;DHT22;40184;53.362;5.216;2022-08-11T07:04:48;21.60;99.90
54272;DHT22;40184;53.362;5.216;2022-08-11T07:13:42;21.40;99.90
54272;DHT22;40184;53.362;5.216;2022-08-11T07:16:30;21.50;99.90
54272;DHT22;40184;53.362;5.216;2022-08-11T07:19:00;22.10;99.90
54272;DHT22;40184;53.362;5.216;2022-08-11T07:21:46;21.80;99.90
54272;DHT22;40184;53.362;5.216;2022-08-11T07:24:57;22.40;99.90
54272;DHT22;40184;53.362;5.216;2022-08-11T07:27:45;22.30;99.90
54272;DHT22;40184;53.362;5.216;2022-08-11T07:30:33;22.80;99.90
54272;DHT22;40184;53.362;5.216;2022-08-11T07:33:02;22.90;99.90
54272;DHT22;40184;53.362;5.216;2022-08-11T07:35:37;23.10;99.90
54272;DHT22;40184;53.362;5.216;2022-08-11T07:38:11;23.30;99.90
54272;DHT22;40184;53.362;5.216;2022-08-11T07:40:39;23.20;99.90
54272;DHT22;40184;53.362;5.216;2022-08-11T07:43:06;23.40;99.90
54272;DHT22;40184;53.362;5.216;2022-08-11T07:45:33;23.20;99.90
54272;DHT22;40184;53.362;5.216;2022-08-11T07:48:20;24.00;99.90
54272;DHT22;40184;53.362;5.216;2022-08-11T07:51:05;23.70;99.90
54272;DHT22;40184;53.362;5.216;2022-08-11T07:53:50;24.10;99.90
54272;DHT22;40184;53.362;5.216;2022-08-11T07:56:17;24.10;99.90
54272;DHT22;40184;53.362;5.216;2022-08-11T07:58:44;23.50;99.90
54272;DHT22;40184;53.362;5.216;2022-08-11T08:01:29;24.00;99.90
54272;DHT22;40184;53.362;5.216;2022-08-11T08:04:15;24.10;99.90
54272;DHT22;40184;53.362;5.216;2022-08-11T08:07:02;23.70;99.90
54272;DHT22;40184;53.362;5.216;2022-08-11T08:09:48;23.70;99.90
54272;DHT22;40184;53.362;5.216;2022-08-11T08:12:33;23.80;99.90
54272;DHT22;40184;53.362;5.216;2022-08-11T08:15:20;24.00;99.90
54272;DHT22;40184;53.362;5.216;2022-08-11T08:18:05;24.40;99.90
54272;DHT22;40184;53.362;5.216;2022-08-11T08:20:36;24.00;99.90
54272;DHT22;40184;53.362;5.216;2022-08-11T08:23:03;24.40;99.90
54272;DHT22;40184;53.362;5.216;2022-08-11T08:25:32;24.50;99.90
54272;DHT22;40184;53.362;5.216;2022-08-11T08:28:01;24.40;99.90
54272;DHT22;40184;53.362;5.216;2022-08-11T08:30:28;24.70;99.90
54272;DHT22;40184;53.362;5.216;2022-08-11T08:33:20;24.70;99.90
54272;DHT22;40184;53.362;5.216;2022-08-11T08:36:08;24.70;99.90
54272;DHT22;40184;53.362;5.216;2022-08-11T08:38:51;24.70;99.90
54272;DHT22;40184;53.362;5.216;2022-08-11T08:41:25;24.90;99.90
54272;DHT22;40184;53.362;5.216;2022-08-11T08:43:54;24.70;99.90
54272;DHT22;40184;53.362;5.216;2022-08-11T08:46:26;25.00;99.90
54272;DHT22;40184;53.362;5.216;2022-08-11T08:48:56;24.90;99.90
54272;DHT22;40184;53.362;5.216;2022-08-11T08:51:24;24.70;99.90
54272;DHT22;40184;53.362;5.216;2022-08-11T08:54:03;25.10;99.90
54272;DHT22;40184;53.362;5.216;2022-08-11T08:56:30;24.90;99.90
54272;DHT22;40184;53.362;5.216;2022-08-11T08:59:00;25.40;99.90
54272;DHT22;40184;53.362;5.216;2022-08-11T09:01:35;24.90;99.90
54272;DHT22;40184;53.362;5.216;2022-08-11T09:04:02;24.90;99.90
54272;DHT22;40184;53.362;5.216;2022-08-11T09:06:31;25.40;99.90
54272;DHT22;40184;53.362;5.216;2022-08-11T09:08:58;25.50;99.90
54272;DHT22;40184;53.362;5.216;2022-08-11T09:11:24;25.60;99.90
54272;DHT22;40184;53.362;5.216;2022-08-11T09:14:08;25.30;99.90
54272;DHT22;40184;53.362;5.216;2022-08-11T09:16:35;25.40;99.90
54272;DHT22;40184;53.362;5.216;2022-08-11T09:19:02;25.30;99.90
54272;DHT22;40184;53.362;5.216;2022-08-11T09:21:28;25.80;99.90
54272;DHT22;40184;53.362;5.216;2022-08-11T09:23:56;25.40;99.90
54272;DHT22;40184;53.362;5.216;2022-08-11T09:26:42;25.50;99.90
54272;DHT22;40184;53.362;5.216;2022-08-11T09:29:31;25.90;99.90
54272;DHT22;40184;53.362;5.216;2022-08-11T09:31:58;25.80;99.90
54272;DHT22;40184;53.362;5.216;2022-08-11T09:34:24;25.70;99.90
54272;DHT22;40184;53.362;5.216;2022-08-11T09:36:50;25.60;99.90
54272;DHT22;40184;53.362;5.216;2022-08-11T09:39:36;25.70;99.90
54272;DHT22;40184;53.362;5.216;2022-08-11T09:42:21;26.00;99.90
54272;DHT22;40184;53.362;5.216;2022-08-11T09:44:48;26.00;99.90
54272;DHT22;40184;53.362;5.216;2022-08-11T09:47:25;26.10;99.90
54272;DHT22;40184;53.362;5.216;2022-08-11T09:49:58;26.30;99.90
54272;DHT22;40184;53.362;5.216;2022-08-11T09:52:24;26.60;99.90
54272;DHT22;40184;53.362;5.216;2022-08-11T09:54:51;26.60;99.90
54272;DHT22;40184;53.362;5.216;2022-08-11T09:57:19;26.60;99.90
54272;DHT22;40184;53.362;5.216;2022-08-11T10:00:05;27.00;99.90
54272;DHT22;40184;53.362;5.216;2022-08-11T10:02:32;27.10;99.90
54272;DHT22;40184;53.362;5.216;2022-08-11T10:04:59;27.30;99.90
54272;DHT22;40184;53.362;5.216;2022-08-11T10:07:46;27.30;99.90
54272;DHT22;40184;53.362;5.216;2022-08-11T10:10:16;27.50;99.90
54272;DHT22;40184;53.362;5.216;2022-08-11T10:12:51;27.80;99.90
54272;DHT22;40184;53.362;5.216;2022-08-11T10:15:19;27.80;99.90
54272;DHT22;40184;53.362;5.216;2022-08-11T10:18:07;27.90;99.90
54272;DHT22;40184;53.362;5.216;2022-08-11T10:21:04;28.00;99.90
54272;DHT22;40184;53.362;5.216;2022-08-11T10:23:33;28.10;99.90
54272;DHT22;40184;53.362;5.216;2022-08-11T10:26:18;28.20;99.90
54272;DHT22;40184;53.362;5.216;2022-08-11T10:29:04;28.20;99.90
54272;DHT22;40184;53.362;5.216;2022-08-11T10:31:52;28.40;99.90
54272;DHT22;40184;53.362;5.216;2022-08-11T10:34:38;28.60;99.90
54272;DHT22;40184;53.362;5.216;2022-08-11T10:37:04;28.60;99.90
54272;DHT22;40184;53.362;5.216;2022-08-11T10:39:31;28.50;99.90
54272;DHT22;40184;53.362;5.216;2022-08-11T10:41:57;28.80;99.90
54272;DHT22;40184;53.362;5.216;2022-08-11T10:44:44;28.80;99.90
54272;DHT22;40184;53.362;5.216;2022-08-11T10:47:12;28.90;99.90
54272;DHT22;40184;53.362;5.216;2022-08-11T10:49:57;28.90;99.90
54272;DHT22;40184;53.362;5.216;2022-08-11T10:52:43;29.00;99.90
54272;DHT22;40184;53.362;5.216;2022-08-11T10:55:28;29.20;99.90
54272;DHT22;40184;53.362;5.216;2022-08-11T10:58:13;29.20;99.90
54272;DHT22;40184;53.362;5.216;2022-08-11T11:00:58;29.40;99.90
54272;DHT22;40184;53.362;5.216;2022-08-11T11:03:27;29.80;99.90
54272;DHT22;40184;53.362;5.216;2022-08-11T11:06:00;30.00;99.90
54272;DHT22;40184;53.362;5.216;2022-08-11T11:08:29;30.10;99.90
54272;DHT22;40184;53.362;5.216;2022-08-11T11:11:17;30.40;99.90
54272;DHT22;40184;53.362;5.216;2022-08-11T11:13:46;30.60;99.90
54272;DHT22;40184;53.362;5.216;2022-08-11T11:16:36;31.10;99.90
54272;DHT22;40184;53.362;5.216;2022-08-11T11:19:19;31.30;99.90
54272;DHT22;40184;53.362;5.216;2022-08-11T11:21:50;31.40;99.90
54272;DHT22;40184;53.362;5.216;2022-08-11T11:27:42;30.90;98.00
54272;DHT22;40184;53.362;5.216;2022-08-11T11:30:10;31.20;96.80
54272;DHT22;40184;53.362;5.216;2022-08-11T11:33:03;31.00;93.90
54272;DHT22;40184;53.362;5.216;2022-08-11T11:36:14;31.30;95.20
54272;DHT22;40184;53.362;5.216;2022-08-11T11:38:43;31.50;94.20
54272;DHT22;40184;53.362;5.216;2022-08-11T11:41:10;31.60;93.60
54272;DHT22;40184;53.362;5.216;2022-08-11T11:43:55;31.90;93.30
54272;DHT22;40184;53.362;5.216;2022-08-11T11:46:25;32.20;92.30
54272;DHT22;40184;53.362;5.216;2022-08-11T11:48:52;32.40;91.70
54272;DHT22;40184;53.362;5.216;2022-08-11T11:51:20;32.50;91.70
54272;DHT22;40184;53.362;5.216;2022-08-11T11:53:46;32.20;91.60
54272;DHT22;40184;53.362;5.216;2022-08-11T11:56:13;31.80;90.90
54272;DHT22;40184;53.362;5.216;2022-08-11T11:58:40;31.90;90.50
54272;DHT22;40184;53.362;5.216;2022-08-11T12:01:25;32.00;90.40
54272;DHT22;40184;53.362;5.216;2022-08-11T12:03:53;32.00;90.10
54272;DHT22;40184;53.362;5.216;2022-08-11T12:06:22;32.00;90.30
54272;DHT22;40184;53.362;5.216;2022-08-11T12:08:51;31.80;89.20
54272;DHT22;40184;53.362;5.216;2022-08-11T12:11:19;31.40;91.00
54272;DHT22;40184;53.362;5.216;2022-08-11T12:14:06;31.90;90.50
54272;DHT22;40184;53.362;5.216;2022-08-11T12:16:34;32.00;90.20
54272;DHT22;40184;53.362;5.216;2022-08-11T12:19:01;31.90;89.10
54272;DHT22;40184;53.362;5.216;2022-08-11T12:21:28;31.80;90.60
54272;DHT22;40184;53.362;5.216;2022-08-11T12:23:56;32.20;90.60
54272;DHT22;40184;53.362;5.216;2022-08-11T12:26:41;32.50;90.10
54272;DHT22;40184;53.362;5.216;2022-08-11T12:29:15;32.60;90.10
54272;DHT22;40184;53.362;5.216;2022-08-11T12:31:41;32.40;90.20
54272;DHT22;40184;53.362;5.216;2022-08-11T12:34:10;32.60;88.80
54272;DHT22;40184;53.362;5.216;2022-08-11T12:36:42;32.50;88.10
54272;DHT22;40184;53.362;5.216;2022-08-11T12:39:09;32.80;87.90
54272;DHT22;40184;53.362;5.216;2022-08-11T12:41:37;32.90;88.50
54272;DHT22;40184;53.362;5.216;2022-08-11T12:44:24;33.20;88.10
54272;DHT22;40184;53.362;5.216;2022-08-11T12:47:13;32.80;87.60
54272;DHT22;40184;53.362;5.216;2022-08-11T12:49:44;32.60;87.70
54272;DHT22;40184;53.362;5.216;2022-08-11T12:52:34;32.90;88.00
54272;DHT22;40184;53.362;5.216;2022-08-11T12:55:15;33.00;86.10
54272;DHT22;40184;53.362;5.216;2022-08-11T12:58:06;33.10;86.90
54272;DHT22;40184;53.362;5.216;2022-08-11T13:00:43;33.20;86.10
54272;DHT22;40184;53.362;5.216;2022-08-11T13:03:28;33.10;85.20
54272;DHT22;40184;53.362;5.216;2022-08-11T13:06:13;32.50;84.80
54272;DHT22;40184;53.362;5.216;2022-08-11T13:08:39;31.90;85.20
54272;DHT22;40184;53.362;5.216;2022-08-11T13:11:07;31.60;86.40
54272;DHT22;40184;53.362;5.216;2022-08-11T13:13:53;31.30;88.70
54272;DHT22;40184;53.362;5.216;2022-08-11T13:16:25;31.30;88.00
54272;DHT22;40184;53.362;5.216;2022-08-11T13:18:52;30.70;88.80
54272;DHT22;40184;53.362;5.216;2022-08-11T13:21:18;30.70;90.30
54272;DHT22;40184;53.362;5.216;2022-08-11T13:23:44;30.90;89.90
54272;DHT22;40184;53.362;5.216;2022-08-11T13:26:11;31.10;90.10
54272;DHT22;40184;53.362;5.216;2022-08-11T13:28:39;31.20;90.30
54272;DHT22;40184;53.362;5.216;2022-08-11T13:31:05;31.00;90.60
54272;DHT22;40184;53.362;5.216;2022-08-11T13:33:46;31.20;91.10
54272;DHT22;40184;53.362;5.216;2022-08-11T13:36:18;31.20;91.40
54272;DHT22;40184;53.362;5.216;2022-08-11T13:38:44;31.30;91.50
54272;DHT22;40184;53.362;5.216;2022-08-11T13:41:11;30.80;90.80
54272;DHT22;40184;53.362;5.216;2022-08-11T13:43:56;30.90;90.40
54272;DHT22;40184;53.362;5.216;2022-08-11T13:46:23;31.20;90.00
54272;DHT22;40184;53.362;5.216;2022-08-11T13:48:51;31.10;90.20
54272;DHT22;40184;53.362;5.216;2022-08-11T13:51:18;31.20;90.50
54272;DHT22;40184;53.362;5.216;2022-08-11T13:54:22;30.80;90.10
54272;DHT22;40184;53.362;5.216;2022-08-11T13:56:51;31.20;90.30
54272;DHT22;40184;53.362;5.216;2022-08-11T13:59:19;31.30;90.40
54272;DHT22;40184;53.362;5.216;2022-08-11T14:01:48;31.50;90.30
54272;DHT22;40184;53.362;5.216;2022-08-11T14:04:22;31.70;89.80
54272;DHT22;40184;53.362;5.216;2022-08-11T14:06:52;31.70;90.10
54272;DHT22;40184;53.362;5.216;2022-08-11T14:09:24;31.80;89.90
54272;DHT22;40184;53.362;5.216;2022-08-11T14:11:53;31.90;87.90
54272;DHT22;40184;53.362;5.216;2022-08-11T14:14:40;32.10;88.50
54272;DHT22;40184;53.362;5.216;2022-08-11T14:17:08;31.70;88.40
54272;DHT22;40184;53.362;5.216;2022-08-11T14:19:41;32.20;88.70
54272;DHT22;40184;53.362;5.216;2022-08-11T14:22:09;32.40;87.50
54272;DHT22;40184;53.362;5.216;2022-08-11T14:24:39;32.60;87.00
54272;DHT22;40184;53.362;5.216;2022-08-11T14:27:08;32.90;86.10
54272;DHT22;40184;53.362;5.216;2022-08-11T14:29:35;33.20;86.70
54272;DHT22;40184;53.362;5.216;2022-08-11T14:32:08;33.30;85.50
54272;DHT22;40184;53.362;5.216;2022-08-11T14:34:39;33.00;84.60
54272;DHT22;40184;53.362;5.216;2022-08-11T14:37:09;33.30;84.90
54272;DHT22;40184;53.362;5.216;2022-08-11T14:39:49;33.30;84.40
54272;DHT22;40184;53.362;5.216;2022-08-11T14:42:17;33.50;83.90
54272;DHT22;40184;53.362;5.216;2022-08-11T14:45:10;33.50;84.40
54272;DHT22;40184;53.362;5.216;2022-08-11T14:47:59;33.50;83.40
54272;DHT22;40184;53.362;5.216;2022-08-11T14:50:31;33.10;84.50
54272;DHT22;40184;53.362;5.216;2022-08-11T14:53:04;33.10;84.90
54272;DHT22;40184;53.362;5.216;2022-08-11T14:55:38;32.90;85.30
54272;DHT22;40184;53.362;5.216;2022-08-11T14:58:25;33.10;84.80
54272;DHT22;40184;53.362;5.216;2022-08-11T15:00:56;33.20;84.40
54272;DHT22;40184;53.362;5.216;2022-08-11T15:03:24;33.80;82.80
54272;DHT22;40184;53.362;5.216;2022-08-11T15:05:56;33.70;83.70
54272;DHT22;40184;53.362;5.216;2022-08-11T15:08:24;33.70;82.00
54272;DHT22;40184;53.362;5.216;2022-08-11T15:11:11;33.00;82.30
54272;DHT22;40184;53.362;5.216;2022-08-11T15:13:55;33.70;83.10
54272;DHT22;40184;53.362;5.216;2022-08-11T15:16:23;33.90;81.30
54272;DHT22;40184;53.362;5.216;2022-08-11T15:19:08;34.20;80.90
54272;DHT22;40184;53.362;5.216;2022-08-11T15:21:34;33.50;81.00
54272;DHT22;40184;53.362;5.216;2022-08-11T15:24:18;33.40;82.30
54272;DHT22;40184;53.362;5.216;2022-08-11T15:26:44;33.70;81.60
54272;DHT22;40184;53.362;5.216;2022-08-11T15:29:31;33.80;79.90
54272;DHT22;40184;53.362;5.216;2022-08-11T15:32:17;33.80;80.70
54272;DHT22;40184;53.362;5.216;2022-08-11T15:34:59;33.60;81.40
54272;DHT22;40184;53.362;5.216;2022-08-11T15:37:45;33.40;81.20
54272;DHT22;40184;53.362;5.216;2022-08-11T15:40:24;33.40;81.20
54272;DHT22;40184;53.362;5.216;2022-08-11T15:43:17;33.30;82.20
54272;DHT22;40184;53.362;5.216;2022-08-11T15:46:08;33.30;82.00
54272;DHT22;40184;53.362;5.216;2022-08-11T15:48:47;33.40;82.50
54272;DHT22;40184;53.362;5.216;2022-08-11T15:51:20;33.80;83.00
54272;DHT22;40184;53.362;5.216;2022-08-11T15:53:55;33.30;82.30
54272;DHT22;40184;53.362;5.216;2022-08-11T15:56:25;33.80;81.70
54272;DHT22;40184;53.362;5.216;2022-08-11T15:58:52;33.80;81.30
54272;DHT22;40184;53.362;5.216;2022-08-11T16:01:39;33.80;81.40
54272;DHT22;40184;53.362;5.216;2022-08-11T16:04:26;34.30;80.50
54272;DHT22;40184;53.362;5.216;2022-08-11T16:07:16;33.90;81.60
54272;DHT22;40184;53.362;5.216;2022-08-11T16:09:43;33.50;81.40
54272;DHT22;40184;53.362;5.216;2022-08-11T16:12:26;33.90;80.80
54272;DHT22;40184;53.362;5.216;2022-08-11T16:14:59;33.90;80.60
54272;DHT22;40184;53.362;5.216;2022-08-11T16:17:44;34.00;80.80
54272;DHT22;40184;53.362;5.216;2022-08-11T16:20:13;33.40;81.10
54272;DHT22;40184;53.362;5.216;2022-08-11T16:22:40;33.40;81.30
54272;DHT22;40184;53.362;5.216;2022-08-11T16:25:13;33.80;81.50
54272;DHT22;40184;53.362;5.216;2022-08-11T16:27:42;33.70;81.80
54272;DHT22;40184;53.362;5.216;2022-08-11T16:30:10;33.80;82.30
54272;DHT22;40184;53.362;5.216;2022-08-11T16:32:38;34.00;82.40
54272;DHT22;40184;53.362;5.216;2022-08-11T16:35:08;34.00;82.40
54272;DHT22;40184;53.362;5.216;2022-08-11T16:37:54;33.60;82.50
54272;DHT22;40184;53.362;5.216;2022-08-11T16:40:41;33.60;83.20
54272;DHT22;40184;53.362;5.216;2022-08-11T16:43:11;33.80;82.60
54272;DHT22;40184;53.362;5.216;2022-08-11T16:45:55;33.10;83.10
54272;DHT22;40184;53.362;5.216;2022-08-11T16:48:42;33.40;83.00
54272;DHT22;40184;53.362;5.216;2022-08-11T16:51:11;32.90;82.70
54272;DHT22;40184;53.362;5.216;2022-08-11T16:53:38;33.20;83.30
54272;DHT22;40184;53.362;5.216;2022-08-11T16:56:05;33.70;82.60
54272;DHT22;40184;53.362;5.216;2022-08-11T16:58:34;33.40;83.00
54272;DHT22;40184;53.362;5.216;2022-08-11T17:01:21;33.50;82.60
54272;DHT22;40184;53.362;5.216;2022-08-11T17:03:56;33.40;83.40
54272;DHT22;40184;53.362;5.216;2022-08-11T17:06:44;33.60;82.60
54272;DHT22;40184;53.362;5.216;2022-08-11T17:09:32;33.70;82.60
54272;DHT22;40184;53.362;5.216;2022-08-11T17:12:20;33.10;84.20
54272;DHT22;40184;53.362;5.216;2022-08-11T17:15:14;33.20;83.00
54272;DHT22;40184;53.362;5.216;2022-08-11T17:18:02;32.70;83.70
54272;DHT22;40184;53.362;5.216;2022-08-11T17:20:29;32.50;83.90
54272;DHT22;40184;53.362;5.216;2022-08-11T17:22:55;32.20;84.30
54272;DHT22;40184;53.362;5.216;2022-08-11T17:25:42;32.30;85.00
54272;DHT22;40184;53.362;5.216;2022-08-11T17:28:09;32.00;84.30
54272;DHT22;40184;53.362;5.216;2022-08-11T17:30:37;31.70;84.90
54272;DHT22;40184;53.362;5.216;2022-08-11T17:33:23;31.60;85.30
54272;DHT22;40184;53.362;5.216;2022-08-11T17:36:09;31.40;86.70
54272;DHT22;40184;53.362;5.216;2022-08-11T17:38:36;31.50;86.70
54272;DHT22;40184;53.362;5.216;2022-08-11T17:41:04;31.50;87.20
54272;DHT22;40184;53.362;5.216;2022-08-11T17:43:49;31.20;87.00
54272;DHT22;40184;53.362;5.216;2022-08-11T17:46:34;31.10;88.10
54272;DHT22;40184;53.362;5.216;2022-08-11T17:49:20;30.50;87.30
54272;DHT22;40184;53.362;5.216;2022-08-11T17:51:47;30.50;87.60
54272;DHT22;40184;53.362;5.216;2022-08-11T17:54:49;29.40;88.40
54272;DHT22;40184;53.362;5.216;2022-08-11T17:57:35;28.20;90.80
54272;DHT22;40184;53.362;5.216;2022-08-11T18:00:21;27.10;92.40
54272;DHT22;40184;53.362;5.216;2022-08-11T18:02:50;26.20;92.40
54272;DHT22;40184;53.362;5.216;2022-08-11T18:05:37;25.60;93.60
54272;DHT22;40184;53.362;5.216;2022-08-11T18:08:07;25.10;94.30
54272;DHT22;40184;53.362;5.216;2022-08-11T18:10:53;24.90;94.90
54272;DHT22;40184;53.362;5.216;2022-08-11T18:13:39;24.60;95.40
54272;DHT22;40184;53.362;5.216;2022-08-11T18:16:24;24.30;95.30
54272;DHT22;40184;53.362;5.216;2022-08-11T18:19:09;24.20;95.60
54272;DHT22;40184;53.362;5.216;2022-08-11T18:21:56;24.10;96.30
54272;DHT22;40184;53.362;5.216;2022-08-11T18:24:50;23.90;96.70
54272;DHT22;40184;53.362;5.216;2022-08-11T18:27:41;23.80;97.10
54272;DHT22;40184;53.362;5.216;2022-08-11T18:30:27;23.70;97.70
54272;DHT22;40184;53.362;5.216;2022-08-11T18:33:15;23.60;97.90
54272;DHT22;40184;53.362;5.216;2022-08-11T18:36:01;23.60;98.30
54272;DHT22;40184;53.362;5.216;2022-08-11T18:38:47;23.50;98.40
54272;DHT22;40184;53.362;5.216;2022-08-11T18:41:35;23.40;98.50
54272;DHT22;40184;53.362;5.216;2022-08-11T18:44:24;23.30;98.60
54272;DHT22;40184;53.362;5.216;2022-08-11T18:47:12;23.30;98.80
54272;DHT22;40184;53.362;5.216;2022-08-11T18:49:59;23.20;98.90
54272;DHT22;40184;53.362;5.216;2022-08-11T18:52:49;23.10;99.10
54272;DHT22;40184;53.362;5.216;2022-08-11T18:55:34;23.10;99.20
54272;DHT22;40184;53.362;5.216;2022-08-11T18:58:22;23.10;99.30
54272;DHT22;40184;53.362;5.216;2022-08-11T19:01:12;23.00;99.50
54272;DHT22;40184;53.362;5.216;2022-08-11T19:03:59;23.00;99.50
54272;DHT22;40184;53.362;5.216;2022-08-11T19:06:47;22.90;99.70
54272;DHT22;40184;53.362;5.216;2022-08-11T19:09:34;22.90;99.80
54272;DHT22;40184;53.362;5.216;2022-08-11T19:12:20;22.80;99.90
54272;DHT22;40184;53.362;5.216;2022-08-11T19:15:08;22.80;99.90
54272;DHT22;40184;53.362;5.216;2022-08-11T19:17:53;22.70;99.90
54272;DHT22;40184;53.362;5.216;2022-08-11T19:20:41;22.60;99.90
54272;DHT22;40184;53.362;5.216;2022-08-11T19:23:35;22.60;99.90
54272;DHT22;40184;53.362;5.216;2022-08-11T19:26:22;22.60;99.90
54272;DHT22;40184;53.362;5.216;2022-08-11T19:29:07;22.50;99.90
54272;DHT22;40184;53.362;5.216;2022-08-11T19:31:53;22.40;99.90
54272;DHT22;40184;53.362;5.216;2022-08-11T19:34:37;22.40;99.90
54272;DHT22;40184;53.362;5.216;2022-08-11T19:37:23;22.40;99.90
54272;DHT22;40184;53.362;5.216;2022-08-11T19:40:09;22.30;99.90
54272;DHT22;40184;53.362;5.216;2022-08-11T19:42:56;22.30;99.90
54272;DHT22;40184;53.362;5.216;2022-08-11T19:45:42;22.30;99.90
54272;DHT22;40184;53.362;5.216;2022-08-11T19:48:27;22.20;99.90
54272;DHT22;40184;53.362;5.216;2022-08-11T19:51:13;22.20;99.90
54272;DHT22;40184;53.362;5.216;2022-08-11T19:53:59;22.20;99.90
54272;DHT22;40184;53.362;5.216;2022-08-11T19:56:44;22.20;99.90